Time;durP1;ratioP1;P1;durP2;ratioP2;P2;SDS_P1;SDS_P2;PMS_P1;PMS_P2;Temp;Humidity;BMP_temperature;BMP_pressure;BME280_temperature;BME280_humidity;BME280_pressure;Samples;Min_cycle;Max_cycle;Signal;HPM_P1;HPM_P2
2023/01/10 00:01:22;;;;;;;1.05;0.00;;;7.10;81.80;;;;;;4990584;28;88721;-74
2023/01/10 00:03:48;;;;;;;0.52;0.00;;;7.10;81.10;;;;;;4990333;28;87384;-74
2023/01/10 00:06:14;;;;;;;1.13;0.10;;;7.10;81.20;;;;;;4991243;28;87371;-74
2023/01/10 00:08:40;;;;;;;0.47;0.00;;;7.20;81.00;;;;;;4991426;28;88947;-74
2023/01/10 00:13:22;;;;;;;0.70;0.00;;;7.20;80.80;;;;;;4988452;28;87976;-74
2023/01/10 00:13:55;;;;;;;0.10;0.00;;;7.10;81.70;;;;;;4988231;28;89105;-75
2023/01/10 00:16:22;;;;;;;0.20;0.00;;;7.00;80.60;;;;;;4991360;28;88581;-75
2023/01/10 00:18:48;;;;;;;0.30;0.00;;;7.00;81.20;;;;;;4988424;28;87423;-75
2023/01/10 00:21:14;;;;;;;0.15;0.00;;;7.00;80.20;;;;;;4991509;28;88261;-74
2023/01/10 00:23:41;;;;;;;0.00;0.00;;;7.10;81.10;;;;;;4989962;28;87936;-74
2023/01/10 00:26:07;;;;;;;0.68;0.00;;;7.00;79.80;;;;;;4992455;28;87077;-73
2023/01/10 00:28:33;;;;;;;0.10;0.00;;;7.10;80.70;;;;;;4990324;28;87217;-73
2023/01/10 00:31:00;;;;;;;1.20;0.10;;;7.10;80.20;;;;;;4989622;28;88065;-73
2023/01/10 00:33:32;;;;;;;0.10;0.00;;;7.10;80.50;;;;;;4988483;28;88590;-73
2023/01/10 00:35:59;;;;;;;0.25;0.00;;;7.00;80.60;;;;;;4993950;28;87363;-73
2023/01/10 00:38:25;;;;;;;0.00;0.00;;;7.00;80.70;;;;;;4990361;28;87394;-73
2023/01/10 00:40:51;;;;;;;0.10;0.00;;;7.00;80.70;;;;;;4992438;28;90110;-73
2023/01/10 00:46:01;;;;;;;0.15;0.05;;;7.00;81.60;;;;;;4990263;28;87503;-73
2023/01/10 00:48:27;;;;;;;0.13;0.00;;;6.90;81.30;;;;;;4991053;28;87711;-77
2023/01/10 00:50:53;;;;;;;3.13;0.00;;;6.90;81.20;;;;;;4991198;28;88112;-78
2023/01/10 00:53:19;;;;;;;0.17;0.00;;;6.90;81.60;;;;;;4988773;28;87972;-77
2023/01/10 00:55:45;;;;;;;0.00;0.00;;;6.80;81.50;;;;;;4993662;28;88902;-79
2023/01/10 00:58:12;;;;;;;0.00;0.00;;;6.90;81.50;;;;;;4989487;28;86797;-79
2023/01/10 01:00:38;;;;;;;0.10;0.00;;;6.90;81.20;;;;;;4989020;28;88465;-80
2023/01/10 01:03:05;;;;;;;0.10;0.00;;;6.90;81.30;;;;;;4989059;28;87728;-79
2023/01/10 01:05:30;;;;;;;0.17;0.00;;;6.90;81.40;;;;;;4991425;28;88080;-78
2023/01/10 01:07:56;;;;;;;0.00;0.00;;;6.90;81.10;;;;;;4987184;28;87409;-80
2023/01/10 01:10:27;;;;;;;0.47;0.00;;;6.90;80.80;;;;;;4985656;28;88849;-77
2023/01/10 01:13:06;;;;;;;0.00;0.00;;;7.00;81.10;;;;;;4995659;28;87793;-78
2023/01/10 01:15:36;;;;;;;0.20;0.00;;;6.90;81.30;;;;;;4992930;28;87513;-78
2023/01/10 01:18:02;;;;;;;0.30;0.00;;;6.80;81.20;;;;;;4990195;28;87966;-77
2023/01/10 01:20:29;;;;;;;0.22;0.00;;;6.80;83.60;;;;;;4994251;28;87962;-77
2023/01/10 01:22:54;;;;;;;0.15;0.00;;;6.80;83.30;;;;;;4989871;28;87339;-76
2023/01/10 01:25:20;;;;;;;0.10;0.00;;;6.90;81.40;;;;;;4994538;28;87166;-74
2023/01/10 01:27:46;;;;;;;0.50;0.00;;;6.90;81.30;;;;;;4993274;28;87066;-75
2023/01/10 01:30:12;;;;;;;0.10;0.00;;;6.90;82.00;;;;;;4992942;28;90149;-76
2023/01/10 01:32:38;;;;;;;1.15;0.00;;;6.90;82.60;;;;;;4995611;28;89202;-76
2023/01/10 01:35:06;;;;;;;0.43;0.00;;;6.90;81.50;;;;;;4992066;28;87624;-74
2023/01/10 01:37:32;;;;;;;0.20;0.00;;;6.90;81.80;;;;;;4994739;28;87288;-74
2023/01/10 01:39:58;;;;;;;1.25;0.00;;;6.90;81.60;;;;;;4993354;28;87691;-74
2023/01/10 01:42:29;;;;;;;0.30;0.00;;;6.90;81.90;;;;;;4987999;28;88575;-74
2023/01/10 01:45:07;;;;;;;0.45;0.00;;;7.00;81.80;;;;;;4993365;28;87758;-74
2023/01/10 01:47:41;;;;;;;0.08;0.00;;;7.00;81.70;;;;;;4992408;28;88555;-73
2023/01/10 01:50:33;;;;;;;0.20;0.00;;;7.00;82.20;;;;;;4993341;28;88296;-72
2023/01/10 01:53:01;;;;;;;0.50;0.00;;;7.00;81.90;;;;;;4988344;28;87428;-72
2023/01/10 01:55:31;;;;;;;0.82;0.00;;;7.00;82.20;;;;;;4990748;28;88434;-73
2023/01/10 01:58:00;;;;;;;0.70;0.00;;;7.00;81.60;;;;;;4993824;28;87471;-74
2023/01/10 02:00:26;;;;;;;0.00;0.00;;;6.90;82.80;;;;;;4988960;28;87720;-74
2023/01/10 02:02:56;;;;;;;0.38;0.00;;;6.90;82.00;;;;;;4990041;28;87543;-76
2023/01/10 02:05:23;;;;;;;0.75;0.00;;;6.90;82.40;;;;;;4990947;28;87082;-78
2023/01/10 02:07:53;;;;;;;0.10;0.00;;;7.00;82.30;;;;;;4994276;28;87554;-80
2023/01/10 02:10:36;;;;;;;0.65;0.00;;;7.00;82.50;;;;;;4990333;28;88985;-79
2023/01/10 02:13:04;;;;;;;0.20;0.00;;;7.00;83.40;;;;;;4993508;28;87925;-78
2023/01/10 02:15:30;;;;;;;0.28;0.00;;;6.90;83.10;;;;;;4987804;28;87437;-78
2023/01/10 02:17:58;;;;;;;0.03;0.00;;;6.90;83.60;;;;;;4991064;28;87464;-77
2023/01/10 02:20:25;;;;;;;0.45;0.00;;;6.90;83.50;;;;;;4989873;28;89878;-76
2023/01/10 02:23:28;;;;;;;0.17;0.00;;;6.80;83.20;;;;;;4989696;28;88311;-78
2023/01/10 02:25:59;;;;;;;0.60;0.00;;;6.80;84.30;;;;;;4989372;28;87608;-76
2023/01/10 02:29:01;;;;;;;0.20;0.00;;;6.80;83.80;;;;;;4993291;28;87974;-76
2023/01/10 02:32:04;;;;;;;0.45;0.00;;;6.80;84.00;;;;;;4990019;28;87870;-74
2023/01/10 02:34:52;;;;;;;;;;;6.80;83.90;;;;;;4992288;28;88841;-76
2023/01/10 02:37:56;;;;;;;0.47;0.00;;;6.80;84.00;;;;;;4988552;28;89203;-76
2023/01/10 02:41:03;;;;;;;0.50;0.00;;;6.70;84.20;;;;;;4992253;28;88396;-75
2023/01/10 02:43:34;;;;;;;0.10;0.00;;;6.80;83.90;;;;;;4989290;28;88335;-75
2023/01/10 02:46:30;;;;;;;0.90;0.00;;;6.80;83.90;;;;;;4989163;28;88003;-77
2023/01/10 02:48:56;;;;;;;0.20;0.00;;;6.70;84.00;;;;;;4979949;28;90268;-75
2023/01/10 02:51:27;;;;;;;1.95;0.00;;;6.60;85.60;;;;;;4991721;28;87446;-76
2023/01/10 02:53:56;;;;;;;0.52;0.00;;;6.60;85.20;;;;;;4990495;28;87818;-76
2023/01/10 02:56:54;;;;;;;0.30;0.00;;;6.60;84.50;;;;;;4990044;28;87342;-76
2023/01/10 02:59:22;;;;;;;0.38;0.05;;;6.60;84.50;;;;;;4990125;28;87333;-76
2023/01/10 03:01:58;;;;;;;0.95;0.00;;;6.60;84.10;;;;;;4993707;28;87490;-75
2023/01/10 03:04:36;;;;;;;1.17;0.00;;;6.60;84.30;;;;;;4989745;28;87978;-75
2023/01/10 03:07:17;;;;;;;0.80;0.00;;;6.60;84.30;;;;;;4991133;28;87924;-76
2023/01/10 03:10:34;;;;;;;0.25;0.00;;;6.60;85.30;;;;;;4994914;28;87407;-76
2023/01/10 03:13:44;;;;;;;0.10;0.00;;;6.60;84.30;;;;;;4976205;28;87843;-76
2023/01/10 03:16:15;;;;;;;0.40;0.00;;;6.60;84.50;;;;;;4975887;28;88733;-74
2023/01/10 03:18:48;;;;;;;0.20;0.00;;;6.60;84.90;;;;;;4986681;28;88709;-74
2023/01/10 03:21:17;;;;;;;1.08;0.00;;;6.50;84.80;;;;;;4990856;28;87651;-74
2023/01/10 03:23:44;;;;;;;0.10;0.00;;;6.50;84.40;;;;;;4988255;28;87823;-74
2023/01/10 03:26:11;;;;;;;0.20;0.00;;;6.40;84.40;;;;;;4986230;28;87833;-75
2023/01/10 03:28:45;;;;;;;0.00;0.00;;;6.50;84.30;;;;;;4991638;28;87758;-74
2023/01/10 03:31:16;;;;;;;0.60;0.00;;;6.50;84.50;;;;;;4988593;28;87164;-74
2023/01/10 03:33:42;;;;;;;0.38;0.00;;;6.50;84.10;;;;;;4992674;28;88055;-73
2023/01/10 03:36:56;;;;;;;0.75;0.00;;;6.50;84.40;;;;;;4988977;28;87840;-73
2023/01/10 03:39:40;;;;;;;0.43;0.00;;;6.50;84.10;;;;;;4986863;28;88027;-73
2023/01/10 03:42:23;;;;;;;0.20;0.00;;;6.50;83.90;;;;;;4991239;28;88465;-76
2023/01/10 03:44:58;;;;;;;0.40;0.00;;;6.50;84.20;;;;;;4988678;28;87818;-77
2023/01/10 03:47:36;;;;;;;0.40;0.00;;;6.40;84.20;;;;;;4989496;28;87732;-76
2023/01/10 03:50:09;;;;;;;0.43;0.00;;;6.40;84.60;;;;;;4991011;28;87530;-76
2023/01/10 03:52:36;;;;;;;0.95;0.00;;;6.40;83.70;;;;;;4990994;28;87377;-75
2023/01/10 03:55:04;;;;;;;0.52;0.00;;;6.40;83.90;;;;;;4994210;28;87433;-75
2023/01/10 03:57:29;;;;;;;1.33;0.00;;;6.40;84.00;;;;;;4991373;28;88141;-75
2023/01/10 03:59:57;;;;;;;1.20;0.03;;;6.50;84.30;;;;;;4997521;28;86822;-75
2023/01/10 04:02:28;;;;;;;2.22;0.10;;;6.50;84.20;;;;;;4998131;28;87561;-75
2023/01/10 04:04:53;;;;;;;2.45;0.00;;;6.50;84.70;;;;;;4998093;28;87406;-77
2023/01/10 04:07:19;;;;;;;4.28;0.10;;;6.50;85.60;;;;;;4996847;28;89062;-74
2023/01/10 04:09:45;;;;;;;4.40;0.10;;;6.40;85.90;;;;;;4997188;28;87536;-75
2023/01/10 04:12:11;;;;;;;2.25;0.10;;;6.30;86.80;;;;;;4997588;28;87344;-77
2023/01/10 04:14:36;;;;;;;3.33;0.00;;;6.20;87.40;;;;;;4998005;28;87626;-76
2023/01/10 04:17:02;;;;;;;2.70;0.10;;;6.20;87.60;;;;;;4994644;28;87733;-74
2023/01/10 04:19:28;;;;;;;3.05;0.10;;;6.10;87.70;;;;;;4998076;28;87643;-75
2023/01/10 04:21:54;;;;;;;2.25;0.10;;;6.10;87.60;;;;;;4997920;28;87512;-75
2023/01/10 04:24:19;;;;;;;1.52;0.10;;;6.20;87.70;;;;;;4989290;28;86675;-79
2023/01/10 04:26:45;;;;;;;1.88;0.13;;;6.10;87.70;;;;;;4990104;28;88060;-78
2023/01/10 04:29:11;;;;;;;2.15;0.10;;;6.10;87.20;;;;;;4986966;28;88761;-76
2023/01/10 04:31:38;;;;;;;5.47;0.10;;;6.10;87.40;;;;;;4988420;28;88374;-77
2023/01/10 04:34:05;;;;;;;1.17;0.03;;;6.20;86.30;;;;;;4987409;28;87703;-76
2023/01/10 04:36:31;;;;;;;3.40;0.10;;;6.20;85.30;;;;;;4985918;28;88203;-77
2023/01/10 04:38:56;;;;;;;2.42;0.17;;;6.20;84.90;;;;;;4985980;28;87961;-78
2023/01/10 04:41:22;;;;;;;4.22;0.10;;;6.20;85.20;;;;;;4992185;28;87499;-75
2023/01/10 04:43:48;;;;;;;1.77;0.00;;;6.10;84.70;;;;;;4991913;28;87885;-77
2023/01/10 04:46:14;;;;;;;4.10;0.10;;;6.10;84.50;;;;;;4999466;28;87661;-75
2023/01/10 04:48:40;;;;;;;2.95;0.10;;;6.20;84.60;;;;;;5000395;28;87933;-75
2023/01/10 04:51:06;;;;;;;6.13;0.20;;;6.20;84.20;;;;;;4995806;28;87460;-77
2023/01/10 04:53:32;;;;;;;6.20;0.20;;;6.20;84.00;;;;;;4990337;28;89285;-76
2023/01/10 04:56:14;;;;;;;2.72;0.10;;;6.30;83.40;;;;;;4991686;28;88602;-75
2023/01/10 04:58:40;;;;;;;4.03;0.10;;;6.20;83.50;;;;;;5000385;28;88174;-75
2023/01/10 05:01:07;;;;;;;3.70;0.10;;;6.30;83.00;;;;;;5000500;28;87763;-74
2023/01/10 05:03:33;;;;;;;1.90;0.00;;;6.30;82.30;;;;;;5000941;28;87221;-75
2023/01/10 05:05:59;;;;;;;7.82;0.35;;;6.30;81.50;;;;;;5000118;28;87689;-76
2023/01/10 05:08:24;;;;;;;1.63;0.10;;;6.30;82.90;;;;;;5000070;28;87989;-74
2023/01/10 05:10:50;;;;;;;3.20;0.10;;;6.30;81.80;;;;;;5008615;28;88208;-76
2023/01/10 05:13:16;;;;;;;6.38;0.13;;;6.30;82.00;;;;;;5000913;28;86669;-76
2023/01/10 05:15:41;;;;;;;0.85;0.05;;;6.30;80.80;;;;;;5000232;28;88219;-76
2023/01/10 05:18:07;;;;;;;3.05;0.08;;;6.30;80.50;;;;;;4999812;28;87447;-76
2023/01/10 05:20:33;;;;;;;2.97;0.05;;;6.40;80.70;;;;;;4999842;28;88493;-75
2023/01/10 05:22:58;;;;;;;3.83;0.10;;;6.40;80.60;;;;;;5000156;28;87595;-77
2023/01/10 05:25:24;;;;;;;7.25;0.20;;;6.40;80.80;;;;;;4999947;28;88172;-75
2023/01/10 05:27:50;;;;;;;4.88;0.30;;;6.40;80.20;;;;;;5000321;28;87623;-76
2023/01/10 05:30:16;;;;;;;2.40;0.10;;;6.40;80.20;;;;;;5000062;28;87442;-76
2023/01/10 05:32:41;;;;;;;4.35;0.20;;;6.40;80.40;;;;;;5000277;28;87594;-74
2023/01/10 05:35:07;;;;;;;5.05;0.10;;;6.30;79.90;;;;;;4999515;28;87721;-75
2023/01/10 05:37:33;;;;;;;4.93;0.15;;;6.30;80.00;;;;;;5000139;28;88320;-76
2023/01/10 05:39:59;;;;;;;1.83;0.03;;;6.40;80.30;;;;;;4999876;28;87416;-74
2023/01/10 05:42:24;;;;;;;2.85;0.10;;;6.40;80.40;;;;;;5000498;28;87008;-77
2023/01/10 05:44:50;;;;;;;1.88;0.10;;;6.40;79.60;;;;;;4999096;28;89082;-74
2023/01/10 05:47:15;;;;;;;4.15;0.10;;;6.40;78.50;;;;;;4996370;28;89653;-77
2023/01/10 05:49:41;;;;;;;4.40;0.13;;;6.40;77.20;;;;;;4995848;28;87241;-75
2023/01/10 05:52:07;;;;;;;1.83;0.10;;;6.40;78.40;;;;;;4990433;28;87194;-77
2023/01/10 05:54:32;;;;;;;3.08;0.10;;;6.50;78.70;;;;;;4998185;28;87556;-75
2023/01/10 05:56:58;;;;;;;2.17;0.10;;;6.50;78.40;;;;;;4991582;28;87306;-76
2023/01/10 05:59:24;;;;;;;3.75;0.15;;;6.50;77.70;;;;;;4993273;28;87452;-76
2023/01/10 06:01:49;;;;;;;3.67;0.10;;;6.50;77.90;;;;;;4987913;28;86741;-75
2023/01/10 06:04:15;;;;;;;1.95;0.10;;;6.50;77.70;;;;;;4989818;28;88142;-73
2023/01/10 06:06:41;;;;;;;5.38;0.10;;;6.50;77.90;;;;;;4995007;28;88106;-74
2023/01/10 06:09:06;;;;;;;3.53;0.20;;;6.50;78.00;;;;;;4995371;28;88504;-75
2023/01/10 06:11:35;;;;;;;6.90;0.10;;;6.50;78.30;;;;;;4998885;28;87022;-75
2023/01/10 06:14:01;;;;;;;1.60;0.00;;;6.50;78.30;;;;;;4995153;28;89477;-74
2023/01/10 06:16:27;;;;;;;4.05;0.10;;;6.40;79.70;;;;;;4995878;28;87940;-74
2023/01/10 06:18:53;;;;;;;2.03;0.10;;;6.50;79.70;;;;;;4993843;28;87098;-74
2023/01/10 06:21:19;;;;;;;3.95;0.10;;;6.40;79.50;;;;;;4998244;28;87738;-75
2023/01/10 06:23:45;;;;;;;2.63;0.10;;;6.50;80.20;;;;;;4994782;28;88517;-74
2023/01/10 06:26:11;;;;;;;6.68;0.10;;;6.40;79.30;;;;;;4998103;28;87867;-74
2023/01/10 06:28:37;;;;;;;2.55;0.20;;;6.40;79.20;;;;;;4998756;28;87441;-74
2023/01/10 06:31:02;;;;;;;3.90;0.10;;;6.50;79.10;;;;;;4993343;28;87419;-74
2023/01/10 06:33:29;;;;;;;1.75;0.10;;;6.50;78.60;;;;;;4997128;28;88566;-74
2023/01/10 06:35:54;;;;;;;2.58;0.20;;;6.60;78.50;;;;;;5000445;28;88269;-74
2023/01/10 06:38:20;;;;;;;1.67;0.17;;;6.50;78.50;;;;;;4995268;28;87462;-73
2023/01/10 06:40:46;;;;;;;1.83;0.08;;;6.50;77.90;;;;;;4986672;28;87299;-75
2023/01/10 06:43:11;;;;;;;5.15;0.20;;;6.50;78.20;;;;;;4987291;28;88627;-75
2023/01/10 06:45:37;;;;;;;3.90;0.30;;;6.50;78.20;;;;;;4996111;28;89703;-74
2023/01/10 06:48:03;;;;;;;4.85;0.20;;;6.50;78.20;;;;;;4996772;28;87352;-75
2023/01/10 06:50:29;;;;;;;2.58;0.15;;;6.50;78.20;;;;;;4994334;28;86591;-76
2023/01/10 06:52:59;;;;;;;3.42;0.20;;;6.60;78.00;;;;;;4996049;28;88222;-75
2023/01/10 06:55:25;;;;;;;5.07;0.30;;;6.50;77.90;;;;;;4997170;28;87636;-73
2023/01/10 06:57:59;;;;;;;2.65;0.03;;;6.50;78.90;;;;;;4994125;28;88946;-73
2023/01/10 07:00:26;;;;;;;3.67;0.40;;;6.50;79.20;;;;;;4989347;28;87759;-72
2023/01/10 07:02:53;;;;;;;3.80;0.55;;;6.50;81.70;;;;;;4988872;28;88234;-73
2023/01/10 07:05:19;;;;;;;6.75;0.15;;;6.50;78.30;;;;;;4986053;28;87492;-76
2023/01/10 07:07:45;;;;;;;3.88;0.13;;;6.40;78.70;;;;;;4987463;28;87430;-74
2023/01/10 07:10:10;;;;;;;3.40;0.10;;;6.50;78.30;;;;;;4999291;28;87075;-76
2023/01/10 07:12:36;;;;;;;2.42;0.20;;;6.50;77.90;;;;;;4995844;28;88111;-77
2023/01/10 07:15:02;;;;;;;3.08;0.10;;;6.50;77.30;;;;;;4997929;28;88307;-75
2023/01/10 07:17:29;;;;;;;1.98;0.13;;;6.60;76.40;;;;;;4997676;28;87432;-76
2023/01/10 07:19:55;;;;;;;2.03;0.10;;;6.50;76.00;;;;;;4998043;28;87600;-75
2023/01/10 07:22:20;;;;;;;3.33;0.13;;;6.50;76.00;;;;;;4996939;28;90261;-76
2023/01/10 07:24:46;;;;;;;4.00;0.17;;;6.60;76.20;;;;;;5010359;28;88242;-76
2023/01/10 07:27:12;;;;;;;4.78;0.10;;;6.70;74.50;;;;;;4997548;28;87781;-76
2023/01/10 07:29:37;;;;;;;3.05;0.30;;;6.70;74.60;;;;;;4998218;28;88027;-76
2023/01/10 07:32:03;;;;;;;2.70;0.13;;;6.70;74.50;;;;;;4990858;28;88526;-76
2023/01/10 07:34:29;;;;;;;3.88;0.15;;;6.70;73.00;;;;;;4985154;28;87771;-75
2023/01/10 07:36:55;;;;;;;4.45;0.20;;;6.70;73.20;;;;;;4997820;28;87356;-76
2023/01/10 07:39:20;;;;;;;5.65;0.20;;;6.70;73.50;;;;;;4995829;28;86674;-74
2023/01/10 07:41:47;;;;;;;1.63;0.20;;;6.80;72.80;;;;;;4997204;28;88668;-77
2023/01/10 07:44:13;;;;;;;5.28;0.20;;;6.80;73.40;;;;;;4999458;28;87332;-76
2023/01/10 07:46:38;;;;;;;4.40;0.20;;;6.80;73.50;;;;;;4996995;28;88642;-76
2023/01/10 07:49:04;;;;;;;3.60;0.20;;;6.90;74.10;;;;;;4997498;28;87367;-76
2023/01/10 07:51:30;;;;;;;4.68;0.28;;;6.90;74.00;;;;;;4994111;28;87438;-75
2023/01/10 07:53:56;;;;;;;6.82;0.40;;;6.90;74.50;;;;;;4997100;28;87316;-76
2023/01/10 07:56:22;;;;;;;3.95;0.20;;;6.90;75.00;;;;;;4996172;28;87290;-77
2023/01/10 07:58:48;;;;;;;2.63;0.10;;;6.90;75.40;;;;;;4994560;28;87740;-76
2023/01/10 08:01:14;;;;;;;5.40;0.13;;;6.80;75.60;;;;;;5007054;28;88441;-75
2023/01/10 08:03:39;;;;;;;3.17;0.20;;;6.70;75.40;;;;;;4996337;28;87875;-75
2023/01/10 08:06:09;;;;;;;2.45;0.25;;;6.70;76.10;;;;;;4989003;28;87512;-75
2023/01/10 08:08:35;;;;;;;3.47;0.20;;;6.70;76.30;;;;;;4998152;28;87330;-75
2023/01/10 08:11:04;;;;;;;5.72;0.40;;;6.70;76.00;;;;;;4995881;28;89066;-75
2023/01/10 08:13:31;;;;;;;5.53;0.28;;;6.70;76.30;;;;;;4992753;28;88946;-75
2023/01/10 08:15:57;;;;;;;4.13;0.30;;;6.70;76.20;;;;;;4997461;28;87367;-75
2023/01/10 08:18:24;;;;;;;5.43;0.32;;;6.70;76.00;;;;;;4993917;28;87250;-75
2023/01/10 08:20:51;;;;;;;4.28;0.20;;;6.80;76.30;;;;;;4982387;28;88283;-75
2023/01/10 08:23:18;;;;;;;2.58;0.10;;;6.80;75.10;;;;;;4995906;28;89672;-75
2023/01/10 08:25:43;;;;;;;6.07;0.20;;;6.80;75.00;;;;;;4997043;28;87978;-75
2023/01/10 08:28:09;;;;;;;6.35;1.17;;;6.80;75.00;;;;;;4997917;28;86615;-76
2023/01/10 08:30:36;;;;;;;4.55;0.68;;;6.80;74.90;;;;;;4997634;28;88466;-76
2023/01/10 08:33:03;;;;;;;3.78;0.60;;;6.70;74.80;;;;;;4998326;28;87498;-77
2023/01/10 08:35:28;;;;;;;3.85;0.40;;;6.80;75.70;;;;;;4997105;28;87943;-76
2023/01/10 08:37:58;;;;;;;3.60;0.30;;;6.80;75.20;;;;;;4992230;28;88816;-76
2023/01/10 08:40:24;;;;;;;5.28;0.17;;;6.80;75.20;;;;;;4986128;28;87569;-76
2023/01/10 08:43:08;;;;;;;4.50;0.20;;;6.90;75.00;;;;;;4989056;28;87837;-76
2023/01/10 08:45:35;;;;;;;2.25;0.20;;;6.90;75.70;;;;;;4988170;28;87621;-76
2023/01/10 08:48:14;;;;;;;6.60;0.43;;;6.90;75.80;;;;;;4988122;28;88162;-76
2023/01/10 08:50:43;;;;;;;4.28;0.13;;;7.00;76.20;;;;;;4986191;28;89014;-76
2023/01/10 08:53:30;;;;;;;2.80;0.20;;;7.10;75.80;;;;;;4991227;28;90016;-76
2023/01/10 08:56:01;;;;;;;3.25;0.20;;;7.10;75.90;;;;;;4992196;28;90066;-75
2023/01/10 08:58:51;;;;;;;2.42;0.22;;;7.20;75.20;;;;;;4993119;28;88101;-76
2023/01/10 09:01:20;;;;;;;1.92;0.30;;;7.20;75.40;;;;;;4988954;28;89137;-76
2023/01/10 09:03:47;;;;;;;2.97;0.20;;;7.30;75.30;;;;;;4992809;28;91393;-76
2023/01/10 09:06:19;;;;;;;4.70;0.32;;;7.30;74.90;;;;;;4996535;28;87545;-76
2023/01/10 09:08:51;;;;;;;3.53;0.10;;;7.40;73.60;;;;;;4994279;28;87267;-76
2023/01/10 09:11:17;;;;;;;4.95;0.10;;;7.50;72.50;;;;;;4992900;28;89990;-75
2023/01/10 09:14:20;;;;;;;2.13;0.10;;;7.50;69.80;;;;;;5001193;28;90072;-76
2023/01/10 09:16:55;;;;;;;;;;;7.60;71.60;;;;;;4995845;28;87517;-76
2023/01/10 09:19:21;;;;;;;1.88;0.10;;;7.60;71.10;;;;;;4995510;28;86840;-76
2023/01/10 09:22:33;;;;;;;1.48;0.10;;;7.70;71.10;;;;;;4996592;28;90437;-76
2023/01/10 09:24:59;;;;;;;2.33;0.10;;;7.80;71.80;;;;;;4961213;28;89748;-76
2023/01/10 09:27:25;;;;;;;3.70;0.10;;;7.80;69.50;;;;;;4990209;28;88671;-75
2023/01/10 09:29:50;;;;;;;3.20;0.10;;;7.80;69.70;;;;;;4995285;28;87483;-75
2023/01/10 09:32:16;;;;;;;3.90;0.10;;;7.70;69.30;;;;;;5005886;28;88178;-75
2023/01/10 09:34:41;;;;;;;0.93;0.03;;;7.80;68.80;;;;;;4993909;28;87890;-74
2023/01/10 09:37:10;;;;;;;3.25;0.22;;;7.80;69.00;;;;;;4991984;28;88251;-75
2023/01/10 09:39:36;;;;;;;3.05;0.10;;;7.80;70.30;;;;;;4997265;28;87402;-75
2023/01/10 09:42:19;;;;;;;2.22;0.10;;;7.80;69.70;;;;;;4984440;28;88155;-74
2023/01/10 09:44:57;;;;;;;3.75;0.10;;;7.90;69.80;;;;;;4996513;28;89788;-75
2023/01/10 09:47:30;;;;;;;2.05;0.10;;;7.90;69.60;;;;;;4996528;28;88485;-75
2023/01/10 09:50:08;;;;;;;5.75;0.22;;;7.90;68.10;;;;;;4995002;28;89310;-75
2023/01/10 09:52:48;;;;;;;8.50;0.80;;;8.00;69.50;;;;;;4997110;28;88460;-75
2023/01/10 09:55:31;;;;;;;5.40;0.77;;;8.10;69.40;;;;;;5002924;28;88915;-75
2023/01/10 09:58:02;;;;;;;;;;;8.20;68.60;;;;;;4997064;28;87875;-75
2023/01/10 10:00:45;;;;;;;4.18;0.30;;;8.40;69.30;;;;;;4998917;28;87821;-75
2023/01/10 10:03:39;;;;;;;1.52;0.10;;;8.50;67.30;;;;;;4989482;28;88621;-74
2023/01/10 10:06:14;;;;;;;4.45;0.28;;;8.50;67.20;;;;;;4996536;28;90304;-74
2023/01/10 10:08:56;;;;;;;4.97;0.40;;;8.50;67.00;;;;;;5000301;28;88648;-75
2023/01/10 10:11:25;;;;;;;3.47;0.30;;;8.50;67.80;;;;;;4997562;28;87152;-76
2023/01/10 10:14:45;;;;;;;5.35;0.22;;;8.60;68.50;;;;;;5006290;28;88197;-76
2023/01/10 10:17:44;;;;;;;3.88;0.30;;;8.70;68.10;;;;;;4932964;28;87641;-76
2023/01/10 10:20:18;;;;;;;1.42;0.00;;;8.90;67.60;;;;;;4985720;28;88259;-76
2023/01/10 10:23:01;;;;;;;1.75;0.10;;;9.00;67.60;;;;;;4999050;28;87468;-76
2023/01/10 10:25:27;;;;;;;2.60;0.08;;;9.10;68.00;;;;;;4985685;28;90656;-74
2023/01/10 10:28:07;;;;;;;2.15;0.08;;;9.20;66.90;;;;;;4991300;28;89438;-74
2023/01/10 10:31:05;;;;;;;4.63;0.30;;;9.20;66.90;;;;;;4990874;28;87773;-74
2023/01/10 10:33:59;;;;;;;2.78;0.15;;;9.20;68.00;;;;;;4993336;28;87762;-75
2023/01/10 10:36:53;;;;;;;4.75;0.10;;;9.30;67.90;;;;;;4992431;28;88188;-74
2023/01/10 10:39:54;;;;;;;3.55;0.10;;;9.40;67.10;;;;;;4983249;28;86965;-74
2023/01/10 10:42:38;;;;;;;2.08;0.10;;;9.40;67.50;;;;;;4992633;28;87451;-74
2023/01/10 10:45:44;;;;;;;;;;;;;;;;;;;;;
2023/01/10 10:48:25;;;;;;;3.47;0.20;;;9.20;67.20;;;;;;5000306;28;117632;-75
2023/01/10 10:51:13;;;;;;;2.33;0.10;;;9.20;67.20;;;;;;4994991;28;90886;-75
2023/01/10 10:53:38;;;;;;;3.40;0.20;;;9.20;67.80;;;;;;5001533;28;87442;-76
2023/01/10 10:56:09;;;;;;;3.78;0.10;;;9.00;67.90;;;;;;4997429;28;88718;-75
2023/01/10 10:58:38;;;;;;;2.55;0.10;;;8.90;68.40;;;;;;4997440;28;89092;-76
2023/01/10 11:01:04;;;;;;;6.43;0.10;;;8.80;67.40;;;;;;4998493;28;87744;-76
2023/01/10 11:03:41;;;;;;;4.30;0.10;;;8.80;66.40;;;;;;4999368;28;87584;-76
2023/01/10 11:06:08;;;;;;;2.42;0.20;;;8.80;67.60;;;;;;4999838;28;86536;-76
2023/01/10 11:08:43;;;;;;;3.80;0.20;;;8.80;68.60;;;;;;4991240;28;87818;-75
2023/01/10 11:11:26;;;;;;;4.78;0.20;;;8.90;69.50;;;;;;4978036;28;87848;-75
2023/01/10 11:14:02;;;;;;;3.05;0.15;;;8.90;69.00;;;;;;4989593;28;88309;-75
2023/01/10 11:16:40;;;;;;;4.72;0.20;;;9.00;68.20;;;;;;4987389;28;87121;-75
2023/01/10 11:19:24;;;;;;;2.42;0.15;;;8.90;67.60;;;;;;4992498;28;88134;-75
2023/01/10 11:22:00;;;;;;;3.78;0.10;;;8.90;67.50;;;;;;4987061;28;89010;-75
2023/01/10 11:24:32;;;;;;;4.93;0.10;;;9.00;67.50;;;;;;4991982;28;87450;-76
2023/01/10 11:27:15;;;;;;;2.92;0.10;;;9.20;67.30;;;;;;4989860;28;87662;-75
2023/01/10 11:30:03;;;;;;;2.28;0.20;;;9.40;65.20;;;;;;4993352;28;88124;-75
2023/01/10 11:32:33;;;;;;;2.47;0.10;;;9.70;66.20;;;;;;4989416;28;91352;-75
2023/01/10 11:35:03;;;;;;;2.75;0.10;;;10.10;65.10;;;;;;4994120;28;87179;-75
2023/01/10 11:37:31;;;;;;;2.33;0.32;;;10.20;64.10;;;;;;4991337;28;87799;-75
2023/01/10 11:40:17;;;;;;;3.72;0.10;;;10.40;64.00;;;;;;4993068;28;88563;-76
2023/01/10 11:42:44;;;;;;;2.53;0.10;;;10.50;63.20;;;;;;4989395;28;89725;-76
2023/01/10 11:45:16;;;;;;;2.45;0.15;;;10.50;61.50;;;;;;4998600;28;87285;-76
2023/01/10 11:48:13;;;;;;;2.42;0.10;;;10.50;61.70;;;;;;4998635;28;87477;-76
2023/01/10 11:50:44;;;;;;;3.75;0.20;;;10.60;62.10;;;;;;4984074;28;88877;-76
2023/01/10 11:53:39;;;;;;;1.73;0.10;;;10.80;63.20;;;;;;4995560;28;88739;-76
2023/01/10 11:56:08;;;;;;;1.55;0.10;;;11.00;62.80;;;;;;4988061;28;87365;-76
2023/01/10 11:58:35;;;;;;;3.83;0.10;;;10.90;59.20;;;;;;4988898;28;86649;-76
2023/01/10 12:01:01;;;;;;;3.47;0.10;;;10.80;60.40;;;;;;4989548;28;87766;-76
2023/01/10 12:03:35;;;;;;;4.55;0.45;;;10.80;59.60;;;;;;4988951;28;87776;-76
2023/01/10 12:06:14;;;;;;;3.72;0.10;;;10.70;60.00;;;;;;4991346;28;88541;-75
2023/01/10 12:08:43;;;;;;;4.63;0.10;;;10.90;62.70;;;;;;4988967;28;87666;-75
2023/01/10 12:11:12;;;;;;;2.05;0.10;;;11.00;60.30;;;;;;4983663;28;88602;-76
2023/01/10 12:13:49;;;;;;;1.33;0.10;;;11.00;59.70;;;;;;4984885;28;87860;-75
2023/01/10 12:16:22;;;;;;;2.60;0.10;;;11.00;58.30;;;;;;4987095;28;87921;-75
2023/01/10 12:18:53;;;;;;;1.58;0.10;;;11.00;59.40;;;;;;4986395;28;87387;-75
2023/01/10 12:21:38;;;;;;;3.10;0.10;;;11.10;59.90;;;;;;4983816;28;88642;-75
2023/01/10 12:24:31;;;;;;;2.55;0.10;;;11.00;60.80;;;;;;4984364;28;88400;-74
2023/01/10 12:27:00;;;;;;;0.70;0.00;;;10.80;61.40;;;;;;4980265;28;87387;-75
2023/01/10 12:29:43;;;;;;;2.67;0.10;;;10.60;61.10;;;;;;4992036;28;87294;-76
2023/01/10 12:32:21;;;;;;;3.90;0.10;;;10.40;60.60;;;;;;4996436;28;89260;-79
2023/01/10 12:35:00;;;;;;;3.33;0.10;;;10.20;62.60;;;;;;4984069;28;88552;-75
2023/01/10 12:37:49;;;;;;;2.70;0.10;;;10.00;61.90;;;;;;4984985;28;87120;-75
2023/01/10 12:40:29;;;;;;;3.25;0.20;;;9.70;62.80;;;;;;4982976;28;89320;-75
2023/01/10 12:46:13;;;;;;;4.55;0.15;;;9.40;62.90;;;;;;4992139;28;87539;-75
2023/01/10 12:48:53;;;;;;;1.55;0.10;;;9.40;62.90;;;;;;4986182;28;87565;-75
2023/01/10 12:51:25;;;;;;;2.17;0.10;;;9.40;62.70;;;;;;4986280;28;86835;-76
2023/01/10 12:54:00;;;;;;;2.22;0.10;;;9.40;63.60;;;;;;4993840;28;87514;-76
2023/01/10 12:56:26;;;;;;;2.70;0.10;;;9.40;63.20;;;;;;4992315;28;87784;-76
2023/01/10 12:58:58;;;;;;;1.35;0.05;;;9.30;63.50;;;;;;4986675;28;88137;-76
2023/01/10 13:01:30;;;;;;;5.47;0.10;;;9.30;61.60;;;;;;4983533;28;89145;-76
2023/01/10 13:04:04;;;;;;;1.35;0.00;;;9.30;62.10;;;;;;4989368;28;88112;-76
2023/01/10 13:06:36;;;;;;;3.10;0.10;;;9.20;62.50;;;;;;4989793;28;89106;-76
2023/01/10 13:09:16;;;;;;;5.60;0.10;;;9.30;62.20;;;;;;4990476;28;87238;-76
2023/01/10 13:11:55;;;;;;;3.25;0.10;;;9.30;62.50;;;;;;4981591;28;89367;-76
2023/01/10 13:14:36;;;;;;;1.33;0.03;;;9.30;64.10;;;;;;4990521;28;87674;-75
2023/01/10 13:17:30;;;;;;;2.75;0.10;;;9.40;62.00;;;;;;4990742;28;87939;-76
2023/01/10 13:20:14;;;;;;;2.83;0.15;;;9.40;61.70;;;;;;4990531;28;88404;-76
2023/01/10 13:22:41;;;;;;;1.67;0.10;;;9.60;61.00;;;;;;4988444;28;87236;-76
2023/01/10 13:25:22;;;;;;;2.28;0.63;;;9.80;60.80;;;;;;4992780;28;89708;-76
2023/01/10 13:28:06;;;;;;;1.30;0.00;;;9.80;61.80;;;;;;4996273;28;88844;-76
2023/01/10 13:30:36;;;;;;;1.08;0.00;;;9.80;59.60;;;;;;4994312;28;87461;-76